sensor_id;sensor_type;location;lat;lon;timestamp;pressure;altitude;pressure_sealevel;temperature;humidity
68145;BME280;55400;51.824;-0.196;2023-02-28T00:03:41;102343.0;;;2.92;66.97
68145;BME280;55400;51.824;-0.196;2023-02-28T00:07:40;102342.46;;;2.87;66.97
68145;BME280;55400;51.824;-0.196;2023-02-28T00:11:41;102342.46;;;2.85;67.29
68145;BME280;55400;51.824;-0.196;2023-02-28T00:15:41;102348.19;;;2.81;67.55
68145;BME280;55400;51.824;-0.196;2023-02-28T00:19:41;102341.24;;;2.77;67.85
68145;BME280;55400;51.824;-0.196;2023-02-28T00:23:40;102344.81;;;2.76;68.24
68145;BME280;55400;51.824;-0.196;2023-02-28T00:27:41;102347.94;;;2.72;68.33
68145;BME280;55400;51.824;-0.196;2023-02-28T00:31:41;102347.94;;;2.71;68.33
68145;BME280;55400;51.824;-0.196;2023-02-28T00:35:41;102348.49;;;2.70;68.38
68145;BME280;55400;51.824;-0.196;2023-02-28T00:39:41;102347.14;;;2.68;68.32
68145;BME280;55400;51.824;-0.196;2023-02-28T00:43:41;102343.26999999999;;;2.69;68.64
68145;BME280;55400;51.824;-0.196;2023-02-28T00:47:41;102341.71;;;2.66;68.64
68145;BME280;55400;51.824;-0.196;2023-02-28T00:51:41;102342.69;;;2.64;68.53
68145;BME280;55400;51.824;-0.196;2023-02-28T00:55:41;102342.69;;;2.62;68.74
68145;BME280;55400;51.824;-0.196;2023-02-28T01:03:41;102341.74;;;2.60;68.84
68145;BME280;55400;51.824;-0.196;2023-02-28T01:07:41;102346.17;;;2.53;68.77
68145;BME280;55400;51.824;-0.196;2023-02-28T01:11:41;102348.91;;;2.46;68.81
68145;BME280;55400;51.824;-0.196;2023-02-28T01:15:41;102348.91;;;2.42;68.81
68145;BME280;55400;51.824;-0.196;2023-02-28T01:19:41;102350.48000000001;;;2.40;69.29
68145;BME280;55400;51.824;-0.196;2023-02-28T01:23:41;102347.91;;;2.39;69.32
68145;BME280;55400;51.824;-0.196;2023-02-28T01:27:41;102347.09;;;2.33;69.32
68145;BME280;55400;51.824;-0.196;2023-02-28T01:31:41;102347.79999999999;;;2.22;69.20
68145;BME280;55400;51.824;-0.196;2023-02-28T01:35:41;102349.3;;;2.15;69.20
68145;BME280;55400;51.824;-0.196;2023-02-28T01:39:41;102351.42;;;2.05;69.26
68145;BME280;55400;51.824;-0.196;2023-02-28T01:47:41;102359.32;;;1.93;69.65
68145;BME280;55400;51.824;-0.196;2023-02-28T01:51:42;102354.66;;;1.95;69.80
68145;BME280;55400;51.824;-0.196;2023-02-28T01:55:41;102348.06999999999;;;1.99;69.79
68145;BME280;55400;51.824;-0.196;2023-02-28T01:59:42;102348.06999999999;;;1.95;69.78
68145;BME280;55400;51.824;-0.196;2023-02-28T02:03:41;102349.75;;;1.87;69.80
68145;BME280;55400;51.824;-0.196;2023-02-28T02:07:42;102344.8;;;1.76;69.87
68145;BME280;55400;51.824;-0.196;2023-02-28T02:11:42;102344.17;;;1.71;70.06
68145;BME280;55400;51.824;-0.196;2023-02-28T02:15:42;102344.17;;;1.68;70.06
68145;BME280;55400;51.824;-0.196;2023-02-28T02:19:46;102347.77;;;1.67;70.31
68145;BME280;55400;51.824;-0.196;2023-02-28T02:23:47;102347.56;;;1.66;70.31
68145;BME280;55400;51.824;-0.196;2023-02-28T02:35:42;102343.17;;;1.67;70.29
68145;BME280;55400;51.824;-0.196;2023-02-28T02:39:44;102348.75;;;1.66;70.42
68145;BME280;55400;51.824;-0.196;2023-02-28T02:43:45;102347.16;;;1.68;70.42
68145;BME280;55400;51.824;-0.196;2023-02-28T02:47:41;102351.51;;;1.66;70.44
68145;BME280;55400;51.824;-0.196;2023-02-28T02:51:41;102351.51;;;1.68;70.46
68145;BME280;55400;51.824;-0.196;2023-02-28T02:55:42;102357.89;;;1.69;70.53
68145;BME280;55400;51.824;-0.196;2023-02-28T02:59:41;102350.78;;;1.66;70.53
68145;BME280;55400;51.824;-0.196;2023-02-28T03:03:41;102345.82;;;1.60;70.51
68145;BME280;55400;51.824;-0.196;2023-02-28T03:07:41;102348.87999999999;;;1.55;70.51
68145;BME280;55400;51.824;-0.196;2023-02-28T03:15:44;102356.48;;;1.54;70.90
68145;BME280;55400;51.824;-0.196;2023-02-28T03:19:45;102346.57999999999;;;1.50;70.81
68145;BME280;55400;51.824;-0.196;2023-02-28T03:23:42;102347.08;;;1.43;70.81
68145;BME280;55400;51.824;-0.196;2023-02-28T03:27:42;102343.93;;;1.40;71.08
68145;BME280;55400;51.824;-0.196;2023-02-28T03:31:43;102343.93;;;1.39;71.08
68145;BME280;55400;51.824;-0.196;2023-02-28T03:35:42;102343.68;;;1.36;71.15
68145;BME280;55400;51.824;-0.196;2023-02-28T03:47:42;102340.67;;;1.34;71.49
68145;BME280;55400;51.824;-0.196;2023-02-28T03:51:41;102341.97;;;1.33;71.69
68145;BME280;55400;51.824;-0.196;2023-02-28T03:55:42;102334.79999999999;;;1.31;71.79
68145;BME280;55400;51.824;-0.196;2023-02-28T04:03:41;102331.79000000001;;;1.30;71.93
68145;BME280;55400;51.824;-0.196;2023-02-28T04:11:42;102340.3;;;1.33;72.04
68145;BME280;55400;51.824;-0.196;2023-02-28T04:15:41;102340.16;;;1.35;72.04
68145;BME280;55400;51.824;-0.196;2023-02-28T04:19:41;102340.14;;;1.37;72.02
68145;BME280;55400;51.824;-0.196;2023-02-28T04:23:41;102341.88;;;1.39;72.02
68145;BME280;55400;51.824;-0.196;2023-02-28T04:31:41;102344.15000000001;;;1.42;72.64
68145;BME280;55400;51.824;-0.196;2023-02-28T04:35:41;102349.22;;;1.45;73.07
68145;BME280;55400;51.824;-0.196;2023-02-28T04:39:41;102355.97;;;1.50;73.27
68145;BME280;55400;51.824;-0.196;2023-02-28T04:43:41;102360.99;;;1.51;73.69
68145;BME280;55400;51.824;-0.196;2023-02-28T04:47:41;102360.99;;;1.50;73.69
68145;BME280;55400;51.824;-0.196;2023-02-28T04:51:41;102359.92;;;1.49;74.38
68145;BME280;55400;51.824;-0.196;2023-02-28T04:59:41;102369.7;;;1.50;74.46
68145;BME280;55400;51.824;-0.196;2023-02-28T05:03:41;102369.7;;;1.52;74.51
68145;BME280;55400;51.824;-0.196;2023-02-28T05:07:41;102371.38;;;1.54;74.67
68145;BME280;55400;51.824;-0.196;2023-02-28T05:11:41;102371.52;;;1.56;74.62
68145;BME280;55400;51.824;-0.196;2023-02-28T05:15:41;102370.01000000001;;;1.58;74.61
68145;BME280;55400;51.824;-0.196;2023-02-28T05:19:41;102370.01000000001;;;1.59;74.61
68145;BME280;55400;51.824;-0.196;2023-02-28T05:23:41;102371.2;;;1.58;74.60
68145;BME280;55400;51.824;-0.196;2023-02-28T05:27:41;102372.05;;;1.57;74.66
68145;BME280;55400;51.824;-0.196;2023-02-28T05:31:41;102370.34999999999;;;1.51;74.35
68145;BME280;55400;51.824;-0.196;2023-02-28T05:35:41;102378.47;;;1.48;74.44
68145;BME280;55400;51.824;-0.196;2023-02-28T05:39:41;102378.47;;;1.46;74.44
68145;BME280;55400;51.824;-0.196;2023-02-28T05:43:41;102381.64;;;1.44;74.48
68145;BME280;55400;51.824;-0.196;2023-02-28T05:47:41;102385.15;;;1.40;74.43
68145;BME280;55400;51.824;-0.196;2023-02-28T05:51:41;102386.89;;;1.36;74.43
68145;BME280;55400;51.824;-0.196;2023-02-28T05:55:41;102387.77;;;1.35;74.58
68145;BME280;55400;51.824;-0.196;2023-02-28T05:59:41;102390.39;;;1.34;74.45
68145;BME280;55400;51.824;-0.196;2023-02-28T06:03:42;102392.74;;;1.32;74.40
68145;BME280;55400;51.824;-0.196;2023-02-28T06:11:42;102387.05;;;1.34;74.54
68145;BME280;55400;51.824;-0.196;2023-02-28T06:19:42;102391.47;;;1.35;74.60
68145;BME280;55400;51.824;-0.196;2023-02-28T06:23:41;102389.12;;;1.34;74.82
68145;BME280;55400;51.824;-0.196;2023-02-28T06:27:42;102386.92;;;1.33;74.89
68145;BME280;55400;51.824;-0.196;2023-02-28T06:35:43;102378.34;;;1.31;74.95
68145;BME280;55400;51.824;-0.196;2023-02-28T06:43:42;102381.28;;;1.33;74.89
68145;BME280;55400;51.824;-0.196;2023-02-28T06:47:42;102380.84;;;1.31;75.03
68145;BME280;55400;51.824;-0.196;2023-02-28T06:51:42;102380.84;;;1.30;75.03
68145;BME280;55400;51.824;-0.196;2023-02-28T06:55:42;102389.04;;;1.28;75.05
68145;BME280;55400;51.824;-0.196;2023-02-28T06:59:42;102379.52;;;1.29;75.17
68145;BME280;55400;51.824;-0.196;2023-02-28T07:03:42;102379.52;;;1.32;75.17
68145;BME280;55400;51.824;-0.196;2023-02-28T07:07:42;102383.18000000001;;;1.37;75.26
68145;BME280;55400;51.824;-0.196;2023-02-28T07:11:42;102382.28;;;1.40;75.22
68145;BME280;55400;51.824;-0.196;2023-02-28T07:15:42;102388.26000000001;;;1.45;75.34
68145;BME280;55400;51.824;-0.196;2023-02-28T07:19:42;102391.83;;;1.49;75.37
68145;BME280;55400;51.824;-0.196;2023-02-28T07:23:42;102393.7;;;1.55;75.37
68145;BME280;55400;51.824;-0.196;2023-02-28T07:27:42;102393.7;;;1.61;75.49
68145;BME280;55400;51.824;-0.196;2023-02-28T07:31:42;102384.66;;;1.70;75.59
68145;BME280;55400;51.824;-0.196;2023-02-28T07:35:42;102383.89;;;1.78;75.66
68145;BME280;55400;51.824;-0.196;2023-02-28T07:39:42;102383.89;;;1.84;75.66
68145;BME280;55400;51.824;-0.196;2023-02-28T07:43:42;102392.62999999999;;;1.90;75.76
68145;BME280;55400;51.824;-0.196;2023-02-28T07:47:42;102392.62999999999;;;1.97;75.76
68145;BME280;55400;51.824;-0.196;2023-02-28T07:51:42;102390.92000000001;;;2.01;76.61
68145;BME280;55400;51.824;-0.196;2023-02-28T07:55:42;102387.37999999999;;;2.05;76.61
68145;BME280;55400;51.824;-0.196;2023-02-28T07:59:42;102378.39;;;2.10;76.69
68145;BME280;55400;51.824;-0.196;2023-02-28T08:03:42;102379.76999999999;;;2.14;76.70
68145;BME280;55400;51.824;-0.196;2023-02-28T08:07:42;102379.76999999999;;;2.19;76.82
68145;BME280;55400;51.824;-0.196;2023-02-28T08:11:42;102371.24;;;2.24;77.66
68145;BME280;55400;51.824;-0.196;2023-02-28T08:15:42;102378.37;;;2.29;77.13
68145;BME280;55400;51.824;-0.196;2023-02-28T08:19:42;102378.37;;;2.37;77.13
68145;BME280;55400;51.824;-0.196;2023-02-28T08:23:42;102387.13;;;2.45;77.11
68145;BME280;55400;51.824;-0.196;2023-02-28T08:27:42;102395.73000000001;;;2.51;77.13
68145;BME280;55400;51.824;-0.196;2023-02-28T08:31:42;102395.73000000001;;;2.56;77.28
68145;BME280;55400;51.824;-0.196;2023-02-28T08:35:42;102394.87000000001;;;2.62;77.29
68145;BME280;55400;51.824;-0.196;2023-02-28T08:39:42;102394.87000000001;;;2.67;77.24
68145;BME280;55400;51.824;-0.196;2023-02-28T08:43:42;102396.66;;;2.73;77.47
68145;BME280;55400;51.824;-0.196;2023-02-28T08:47:42;102396.66;;;2.78;77.47
68145;BME280;55400;51.824;-0.196;2023-02-28T08:51:42;102392.66;;;2.85;77.42
68145;BME280;55400;51.824;-0.196;2023-02-28T08:55:42;102392.66;;;2.93;77.52
68145;BME280;55400;51.824;-0.196;2023-02-28T08:59:42;102390.34;;;3.04;77.60
68145;BME280;55400;51.824;-0.196;2023-02-28T09:03:42;102389.51;;;3.14;77.68
68145;BME280;55400;51.824;-0.196;2023-02-28T09:07:42;102389.51;;;3.26;77.51
68145;BME280;55400;51.824;-0.196;2023-02-28T09:11:42;102379.86;;;3.35;77.57
68145;BME280;55400;51.824;-0.196;2023-02-28T09:15:42;102377.69;;;3.45;77.53
68145;BME280;55400;51.824;-0.196;2023-02-28T09:19:42;102376.86;;;3.50;77.49
68145;BME280;55400;51.824;-0.196;2023-02-28T09:23:42;102376.86;;;3.58;77.49
68145;BME280;55400;51.824;-0.196;2023-02-28T09:27:42;102360.72;;;3.65;77.48
68145;BME280;55400;51.824;-0.196;2023-02-28T09:31:42;102362.2;;;3.73;77.84
68145;BME280;55400;51.824;-0.196;2023-02-28T09:35:42;102362.2;;;3.82;77.68
68145;BME280;55400;51.824;-0.196;2023-02-28T09:39:42;102360.17;;;3.89;77.67
68145;BME280;55400;51.824;-0.196;2023-02-28T09:43:43;102361.83;;;3.96;77.56
68145;BME280;55400;51.824;-0.196;2023-02-28T09:47:42;102361.83;;;4.01;77.56
68145;BME280;55400;51.824;-0.196;2023-02-28T09:51:46;102368.06;;;4.06;77.46
68145;BME280;55400;51.824;-0.196;2023-02-28T09:55:43;102365.22;;;4.08;77.62
68145;BME280;55400;51.824;-0.196;2023-02-28T10:03:42;102375.7;;;4.05;77.91
68145;BME280;55400;51.824;-0.196;2023-02-28T10:07:47;102375.87;;;4.04;77.95
68145;BME280;55400;51.824;-0.196;2023-02-28T10:11:42;102366.71;;;4.07;78.00
68145;BME280;55400;51.824;-0.196;2023-02-28T10:15:42;102371.13;;;4.11;78.37
68145;BME280;55400;51.824;-0.196;2023-02-28T10:19:44;102365.23;;;4.13;78.23
68145;BME280;55400;51.824;-0.196;2023-02-28T10:23:42;102365.23;;;4.15;78.23
68145;BME280;55400;51.824;-0.196;2023-02-28T10:27:42;102363.17;;;4.17;78.52
68145;BME280;55400;51.824;-0.196;2023-02-28T10:31:42;102357.9;;;4.21;78.19
68145;BME280;55400;51.824;-0.196;2023-02-28T10:35:42;102354.71;;;4.25;78.04
68145;BME280;55400;51.824;-0.196;2023-02-28T10:43:43;102360.06;;;4.27;78.56
68145;BME280;55400;51.824;-0.196;2023-02-28T10:47:51;102363.31;;;4.32;78.56
68145;BME280;55400;51.824;-0.196;2023-02-28T10:51:42;102363.31;;;4.38;78.46
68145;BME280;55400;51.824;-0.196;2023-02-28T10:55:42;102349.23999999999;;;4.43;78.52
68145;BME280;55400;51.824;-0.196;2023-02-28T10:59:42;102349.23999999999;;;4.48;78.52
68145;BME280;55400;51.824;-0.196;2023-02-28T11:03:43;102339.73999999999;;;4.50;78.46
68145;BME280;55400;51.824;-0.196;2023-02-28T11:15:42;102337.86;;;4.53;78.72
68145;BME280;55400;51.824;-0.196;2023-02-28T11:19:44;102336.87999999999;;;4.62;78.93
68145;BME280;55400;51.824;-0.196;2023-02-28T11:23:43;102339.43000000001;;;4.67;79.01
68145;BME280;55400;51.824;-0.196;2023-02-28T11:27:44;102338.31;;;4.72;78.64
68145;BME280;55400;51.824;-0.196;2023-02-28T11:31:42;102334.36;;;4.79;78.64
68145;BME280;55400;51.824;-0.196;2023-02-28T11:35:42;102326.76;;;4.87;78.43
68145;BME280;55400;51.824;-0.196;2023-02-28T11:39:43;102326.76;;;4.94;78.17
68145;BME280;55400;51.824;-0.196;2023-02-28T11:43:47;102314.67;;;5.03;78.10
68145;BME280;55400;51.824;-0.196;2023-02-28T11:47:44;102310.63;;;5.10;78.04
68145;BME280;55400;51.824;-0.196;2023-02-28T11:51:45;102243.40999999999;;;5.18;77.93
68145;BME280;55400;51.824;-0.196;2023-02-28T11:55:44;102240.37;;;5.26;77.95
68145;BME280;55400;51.824;-0.196;2023-02-28T11:59:46;102250.14;;;5.34;77.78
68145;BME280;55400;51.824;-0.196;2023-02-28T12:03:43;102250.14;;;5.43;77.76
68145;BME280;55400;51.824;-0.196;2023-02-28T12:07:45;102246.11;;;5.53;77.50
68145;BME280;55400;51.824;-0.196;2023-02-28T12:15:49;102271.3;;;5.46;77.29
68145;BME280;55400;51.824;-0.196;2023-02-28T12:19:44;102271.3;;;5.42;77.56
68145;BME280;55400;51.824;-0.196;2023-02-28T12:23:46;102263.06;;;5.35;77.71
68145;BME280;55400;51.824;-0.196;2023-02-28T12:27:43;102259.55;;;5.29;78.69
68145;BME280;55400;51.824;-0.196;2023-02-28T12:31:45;102256.73000000001;;;5.26;78.69
68145;BME280;55400;51.824;-0.196;2023-02-28T12:39:44;102252.45999999999;;;5.29;78.34
68145;BME280;55400;51.824;-0.196;2023-02-28T12:43:43;102241.97;;;5.34;78.22
68145;BME280;55400;51.824;-0.196;2023-02-28T12:47:43;102241.11;;;5.39;78.12
68145;BME280;55400;51.824;-0.196;2023-02-28T12:51:43;102241.11;;;5.46;78.22
68145;BME280;55400;51.824;-0.196;2023-02-28T12:55:44;102228.02;;;5.51;78.26
68145;BME280;55400;51.824;-0.196;2023-02-28T12:59:44;102202.56000000001;;;5.57;77.84
68145;BME280;55400;51.824;-0.196;2023-02-28T13:03:45;102202.56000000001;;;5.71;77.64
68145;BME280;55400;51.824;-0.196;2023-02-28T13:11:44;102194.47;;;5.86;76.53
68145;BME280;55400;51.824;-0.196;2023-02-28T13:27:43;102186.44;;;5.85;75.45
68145;BME280;55400;51.824;-0.196;2023-02-28T13:35:43;102172.97;;;5.76;75.42
68145;BME280;55400;51.824;-0.196;2023-02-28T13:39:45;102167.21;;;5.73;75.58
68145;BME280;55400;51.824;-0.196;2023-02-28T13:47:43;102157.65;;;5.80;75.75
68145;BME280;55400;51.824;-0.196;2023-02-28T13:51:43;102141.21;;;5.86;75.35
68145;BME280;55400;51.824;-0.196;2023-02-28T13:55:43;102145.17;;;5.95;75.35
68145;BME280;55400;51.824;-0.196;2023-02-28T13:59:45;102123.42;;;6.01;75.23
68145;BME280;55400;51.824;-0.196;2023-02-28T14:07:44;102113.86;;;6.10;74.08
68145;BME280;55400;51.824;-0.196;2023-02-28T14:11:43;102105.59;;;6.15;73.99
68145;BME280;55400;51.824;-0.196;2023-02-28T14:15:47;102126.62;;;6.19;73.99
68145;BME280;55400;51.824;-0.196;2023-02-28T14:19:43;102126.62;;;6.23;74.13
68145;BME280;55400;51.824;-0.196;2023-02-28T14:27:44;102126.54;;;6.26;73.63
68145;BME280;55400;51.824;-0.196;2023-02-28T14:31:44;102119.31;;;6.28;73.53
68145;BME280;55400;51.824;-0.196;2023-02-28T14:35:46;102119.42;;;6.31;73.55
68145;BME280;55400;51.824;-0.196;2023-02-28T14:39:43;102116.83;;;6.28;72.98
68145;BME280;55400;51.824;-0.196;2023-02-28T14:43:51;102125.01999999999;;;6.25;73.34
68145;BME280;55400;51.824;-0.196;2023-02-28T14:47:43;102124.94;;;6.22;73.34
68145;BME280;55400;51.824;-0.196;2023-02-28T14:51:43;102125.8;;;6.19;73.45
68145;BME280;55400;51.824;-0.196;2023-02-28T14:55:43;102125.8;;;6.15;73.49
68145;BME280;55400;51.824;-0.196;2023-02-28T14:59:43;102113.95;;;6.11;73.69
68145;BME280;55400;51.824;-0.196;2023-02-28T15:03:43;102103.2;;;6.13;73.67
68145;BME280;55400;51.824;-0.196;2023-02-28T15:07:43;102103.2;;;6.17;73.67
68145;BME280;55400;51.824;-0.196;2023-02-28T15:11:45;102103.61;;;6.19;73.37
68145;BME280;55400;51.824;-0.196;2023-02-28T15:15:44;102101.37;;;6.20;73.08
68145;BME280;55400;51.824;-0.196;2023-02-28T15:19:43;102101.37;;;6.22;73.08
68145;BME280;55400;51.824;-0.196;2023-02-28T15:23:44;102097.25;;;6.25;73.27
68145;BME280;55400;51.824;-0.196;2023-02-28T15:27:44;102097.25;;;6.27;73.27
68145;BME280;55400;51.824;-0.196;2023-02-28T15:31:44;102104.45999999999;;;6.30;73.36
68145;BME280;55400;51.824;-0.196;2023-02-28T15:35:43;102101.59;;;6.32;73.35
68145;BME280;55400;51.824;-0.196;2023-02-28T15:39:43;102095.84;;;6.33;73.23
68145;BME280;55400;51.824;-0.196;2023-02-28T15:43:43;102103.42000000001;;;6.30;72.30
68145;BME280;55400;51.824;-0.196;2023-02-28T15:47:44;102103.42000000001;;;6.27;72.30
68145;BME280;55400;51.824;-0.196;2023-02-28T15:51:43;102104.63;;;6.25;72.44
68145;BME280;55400;51.824;-0.196;2023-02-28T15:55:43;102087.13;;;6.26;72.56
68145;BME280;55400;51.824;-0.196;2023-02-28T15:59:45;102088.5;;;6.25;72.56
68145;BME280;55400;51.824;-0.196;2023-02-28T16:03:44;102098.44;;;6.22;72.31
68145;BME280;55400;51.824;-0.196;2023-02-28T16:07:43;102092.53;;;6.19;72.40
68145;BME280;55400;51.824;-0.196;2023-02-28T16:11:44;102092.53;;;6.20;72.40
68145;BME280;55400;51.824;-0.196;2023-02-28T16:15:43;102095.9;;;6.21;72.44
68145;BME280;55400;51.824;-0.196;2023-02-28T16:19:43;102099.59;;;6.20;72.32
68145;BME280;55400;51.824;-0.196;2023-02-28T16:23:43;102107.9;;;6.22;72.32
68145;BME280;55400;51.824;-0.196;2023-02-28T16:27:43;102110.74;;;6.21;72.09
68145;BME280;55400;51.824;-0.196;2023-02-28T16:31:43;102123.63;;;6.20;72.21
68145;BME280;55400;51.824;-0.196;2023-02-28T16:35:43;102123.63;;;6.19;72.21
68145;BME280;55400;51.824;-0.196;2023-02-28T16:39:43;102125.65;;;6.14;72.04
68145;BME280;55400;51.824;-0.196;2023-02-28T16:43:43;102128.09;;;6.10;72.12
68145;BME280;55400;51.824;-0.196;2023-02-28T16:47:43;102128.09;;;6.08;72.41
68145;BME280;55400;51.824;-0.196;2023-02-28T16:55:43;102125.01999999999;;;6.07;72.66
68145;BME280;55400;51.824;-0.196;2023-02-28T16:59:43;102131.09;;;6.04;72.71
68145;BME280;55400;51.824;-0.196;2023-02-28T17:03:43;102121.62;;;5.99;72.93
68145;BME280;55400;51.824;-0.196;2023-02-28T17:07:43;102121.62;;;5.97;73.31
68145;BME280;55400;51.824;-0.196;2023-02-28T17:11:43;102133.25;;;5.94;73.72
68145;BME280;55400;51.824;-0.196;2023-02-28T17:15:43;102133.25;;;5.92;73.72
68145;BME280;55400;51.824;-0.196;2023-02-28T17:19:43;102130.96;;;5.91;74.17
68145;BME280;55400;51.824;-0.196;2023-02-28T17:23:43;102137.61;;;5.88;74.42
68145;BME280;55400;51.824;-0.196;2023-02-28T17:27:43;102135.39;;;5.86;74.57
68145;BME280;55400;51.824;-0.196;2023-02-28T17:31:44;102138.59;;;5.85;74.43
68145;BME280;55400;51.824;-0.196;2023-02-28T17:35:44;102149.39;;;5.84;74.33
68145;BME280;55400;51.824;-0.196;2023-02-28T17:43:44;102152.15;;;5.81;74.21
68145;BME280;55400;51.824;-0.196;2023-02-28T17:47:45;102152.31999999999;;;5.80;74.23
68145;BME280;55400;51.824;-0.196;2023-02-28T17:51:45;102159.14;;;5.79;74.12
68145;BME280;55400;51.824;-0.196;2023-02-28T17:55:44;102162.51999999999;;;5.76;74.05
68145;BME280;55400;51.824;-0.196;2023-02-28T17:59:45;102162.51999999999;;;5.73;74.18
68145;BME280;55400;51.824;-0.196;2023-02-28T18:03:43;102168.68;;;5.68;74.19
68145;BME280;55400;51.824;-0.196;2023-02-28T18:07:43;102171.65;;;5.64;74.39
68145;BME280;55400;51.824;-0.196;2023-02-28T18:11:44;102171.65;;;5.63;74.39
68145;BME280;55400;51.824;-0.196;2023-02-28T18:19:44;102174.91;;;5.62;74.38
68145;BME280;55400;51.824;-0.196;2023-02-28T18:23:44;102174.91;;;5.61;74.38
68145;BME280;55400;51.824;-0.196;2023-02-28T18:27:44;102175.42;;;5.60;74.31
68145;BME280;55400;51.824;-0.196;2023-02-28T18:31:43;102175.42;;;5.61;74.18
68145;BME280;55400;51.824;-0.196;2023-02-28T18:35:44;102189.20000000001;;;5.62;74.08
68145;BME280;55400;51.824;-0.196;2023-02-28T18:39:44;102191.04;;;5.61;74.08
68145;BME280;55400;51.824;-0.196;2023-02-28T18:43:44;102194.17;;;5.58;74.03
68145;BME280;55400;51.824;-0.196;2023-02-28T18:47:43;102193.82;;;5.59;74.08
68145;BME280;55400;51.824;-0.196;2023-02-28T18:51:44;102187.78;;;5.60;74.15
68145;BME280;55400;51.824;-0.196;2023-02-28T18:55:43;102190.08;;;5.62;74.15
68145;BME280;55400;51.824;-0.196;2023-02-28T18:59:44;102189.14;;;5.61;74.26
68145;BME280;55400;51.824;-0.196;2023-02-28T19:03:44;102189.14;;;5.58;74.26
68145;BME280;55400;51.824;-0.196;2023-02-28T19:07:44;102193.45;;;5.59;74.36
68145;BME280;55400;51.824;-0.196;2023-02-28T19:11:43;102193.45;;;5.58;74.43
68145;BME280;55400;51.824;-0.196;2023-02-28T19:15:43;102194.81;;;5.55;74.48
68145;BME280;55400;51.824;-0.196;2023-02-28T19:19:43;102194.45;;;5.53;74.54
68145;BME280;55400;51.824;-0.196;2023-02-28T19:23:44;102200.2;;;5.52;74.59
68145;BME280;55400;51.824;-0.196;2023-02-28T19:27:44;102200.2;;;5.50;74.59
68145;BME280;55400;51.824;-0.196;2023-02-28T19:31:44;102205.17;;;5.51;74.50
68145;BME280;55400;51.824;-0.196;2023-02-28T19:35:44;102205.17;;;5.53;74.50
68145;BME280;55400;51.824;-0.196;2023-02-28T19:43:44;102216.35;;;5.50;74.27
68145;BME280;55400;51.824;-0.196;2023-02-28T19:47:44;102224.22;;;5.52;74.25
68145;BME280;55400;51.824;-0.196;2023-02-28T19:51:44;102224.22;;;5.53;74.27
68145;BME280;55400;51.824;-0.196;2023-02-28T19:55:45;102228.85;;;5.54;74.29
68145;BME280;55400;51.824;-0.196;2023-02-28T19:59:44;102232.76;;;5.51;74.27
68145;BME280;55400;51.824;-0.196;2023-02-28T20:03:46;102235.35;;;5.50;74.26
68145;BME280;55400;51.824;-0.196;2023-02-28T20:11:44;102235.5;;;5.48;74.07
68145;BME280;55400;51.824;-0.196;2023-02-28T20:15:44;102249.49;;;5.47;73.92
68145;BME280;55400;51.824;-0.196;2023-02-28T20:19:44;102244.16;;;5.48;73.84
68145;BME280;55400;51.824;-0.196;2023-02-28T20:23:44;102251.28;;;5.47;73.84
68145;BME280;55400;51.824;-0.196;2023-02-28T20:27:44;102257.4;;;5.44;73.87
68145;BME280;55400;51.824;-0.196;2023-02-28T20:35:44;102260.44;;;5.50;73.74
68145;BME280;55400;51.824;-0.196;2023-02-28T20:39:44;102256.76;;;5.56;73.60
68145;BME280;55400;51.824;-0.196;2023-02-28T20:43:44;102256.76;;;5.60;73.22
68145;BME280;55400;51.824;-0.196;2023-02-28T20:47:44;102249.19;;;5.61;72.86
68145;BME280;55400;51.824;-0.196;2023-02-28T20:51:44;102255.47;;;5.64;72.63
68145;BME280;55400;51.824;-0.196;2023-02-28T20:55:52;102255.76;;;5.67;72.14
68145;BME280;55400;51.824;-0.196;2023-02-28T20:59:44;102255.76;;;5.66;72.14
68145;BME280;55400;51.824;-0.196;2023-02-28T21:03:44;102255.56;;;5.63;72.13
68145;BME280;55400;51.824;-0.196;2023-02-28T21:07:44;102259.39;;;5.57;71.95
68145;BME280;55400;51.824;-0.196;2023-02-28T21:11:44;102252.03;;;5.58;72.14
68145;BME280;55400;51.824;-0.196;2023-02-28T21:15:44;102256.47;;;5.56;72.17
68145;BME280;55400;51.824;-0.196;2023-02-28T21:19:44;102256.47;;;5.55;72.04
68145;BME280;55400;51.824;-0.196;2023-02-28T21:23:44;102260.28;;;5.51;71.98
68145;BME280;55400;51.824;-0.196;2023-02-28T21:27:44;102260.28;;;5.53;72.05
68145;BME280;55400;51.824;-0.196;2023-02-28T21:31:44;102268.81;;;5.57;71.92
68145;BME280;55400;51.824;-0.196;2023-02-28T21:39:44;102271.04000000001;;;5.55;71.58
68145;BME280;55400;51.824;-0.196;2023-02-28T21:43:44;102271.04000000001;;;5.53;71.58
68145;BME280;55400;51.824;-0.196;2023-02-28T21:47:44;102276.23;;;5.49;71.53
68145;BME280;55400;51.824;-0.196;2023-02-28T21:55:44;102278.34;;;5.50;71.85
68145;BME280;55400;51.824;-0.196;2023-02-28T21:59:44;102279.47;;;5.46;71.80
68145;BME280;55400;51.824;-0.196;2023-02-28T22:03:44;102279.47;;;5.43;71.72
68145;BME280;55400;51.824;-0.196;2023-02-28T22:07:44;102290.64;;;5.40;71.78
68145;BME280;55400;51.824;-0.196;2023-02-28T22:11:44;102293.31;;;5.38;71.84
68145;BME280;55400;51.824;-0.196;2023-02-28T22:15:44;102288.61;;;5.37;71.88
68145;BME280;55400;51.824;-0.196;2023-02-28T22:19:44;102293.62999999999;;;5.36;71.84
68145;BME280;55400;51.824;-0.196;2023-02-28T22:23:44;102295.39;;;5.33;71.91
68145;BME280;55400;51.824;-0.196;2023-02-28T22:27:44;102292.44;;;5.28;71.89
68145;BME280;55400;51.824;-0.196;2023-02-28T22:35:44;102292.97;;;5.29;72.18
68145;BME280;55400;51.824;-0.196;2023-02-28T22:43:44;102290.95999999999;;;5.28;72.08
68145;BME280;55400;51.824;-0.196;2023-02-28T22:47:46;102287.31;;;5.30;72.00
68145;BME280;55400;51.824;-0.196;2023-02-28T22:51:44;102287.84000000001;;;5.31;72.00
68145;BME280;55400;51.824;-0.196;2023-02-28T22:55:44;102288.28;;;5.34;72.05
68145;BME280;55400;51.824;-0.196;2023-02-28T23:03:44;102284.76000000001;;;5.31;71.89
68145;BME280;55400;51.824;-0.196;2023-02-28T23:07:44;102285.28;;;5.33;71.89
68145;BME280;55400;51.824;-0.196;2023-02-28T23:11:45;102289.38;;;5.35;71.89